createdAt,value
2019-02-09T00:02:11.471Z,4.40
2019-02-09T00:04:42.744Z,4.40
2019-02-09T00:07:13.313Z,4.30
2019-02-09T00:09:44.369Z,4.30
2019-02-09T00:12:14.933Z,4.30
2019-02-09T00:14:46.463Z,4.20
2019-02-09T00:17:17.387Z,4.20
2019-02-09T00:19:48.117Z,4.20
2019-02-09T00:22:19.001Z,4.20
2019-02-09T00:24:49.697Z,4.20
2019-02-09T00:27:20.728Z,4.30
2019-02-09T00:29:51.732Z,4.30
2019-02-09T00:32:22.460Z,4.40
2019-02-09T00:34:53.026Z,4.40
2019-02-09T00:37:23.714Z,4.50
2019-02-09T00:39:54.265Z,4.50
2019-02-09T00:42:25.003Z,4.50
2019-02-09T00:44:57.274Z,4.60
2019-02-09T00:47:28.676Z,4.60
2019-02-09T00:49:59.583Z,4.70
2019-02-09T00:52:30.285Z,4.70
2019-02-09T00:55:00.860Z,4.70
2019-02-09T00:57:31.575Z,4.70
2019-02-09T01:00:02.144Z,4.70
2019-02-09T01:02:32.801Z,4.80
2019-02-09T01:05:03.349Z,5.10
2019-02-09T01:07:34.407Z,5.10
2019-02-09T01:10:07.168Z,5.10
2019-02-09T01:12:37.896Z,5.00
2019-02-09T01:15:12.350Z,5.00
2019-02-09T01:17:42.934Z,5.00
2019-02-09T01:20:18.054Z,5.00
2019-02-09T01:22:48.681Z,4.90
2019-02-09T01:25:19.483Z,4.70
2019-02-09T01:27:50.172Z,4.60
2019-02-09T01:30:24.593Z,4.50
2019-02-09T01:32:55.365Z,4.30
2019-02-09T01:35:26.641Z,4.20
2019-02-09T01:37:57.507Z,4.20
2019-02-09T01:40:28.748Z,4.10
2019-02-09T01:42:59.641Z,4.10
2019-02-09T01:45:31.969Z,4.10
2019-02-09T01:48:02.761Z,4.20
2019-02-09T01:50:33.863Z,4.20
2019-02-09T01:53:04.841Z,4.30
2019-02-09T01:55:35.756Z,4.40
2019-02-09T01:58:06.674Z,4.40
2019-02-09T02:00:37.860Z,4.40
2019-02-09T02:03:08.844Z,4.40
2019-02-09T02:05:39.828Z,4.40
2019-02-09T02:08:12.033Z,4.50
2019-02-09T02:10:42.650Z,4.40
2019-02-09T02:13:13.263Z,4.50
2019-02-09T02:15:44.011Z,4.40
2019-02-09T02:18:14.916Z,4.50
2019-02-09T02:20:45.808Z,4.40
2019-02-09T02:23:16.456Z,4.50
2019-02-09T02:25:47.025Z,4.50
2019-02-09T02:28:17.610Z,4.40
2019-02-09T02:30:48.287Z,4.50
2019-02-09T02:33:19.578Z,4.50
2019-02-09T02:35:50.211Z,4.70
2019-02-09T02:38:20.801Z,4.90
2019-02-09T02:40:51.373Z,4.90
2019-02-09T02:43:22.756Z,4.90
2019-02-09T02:45:53.321Z,4.90
2019-02-09T02:48:23.898Z,4.80
2019-02-09T02:50:54.608Z,5.00
2019-02-09T02:53:25.375Z,5.10
2019-02-09T02:55:55.923Z,5.20
2019-02-09T02:58:26.897Z,5.10
2019-02-09T03:00:57.461Z,5.30
2019-02-09T03:03:28.207Z,5.20
2019-02-09T03:05:58.781Z,5.10
2019-02-09T03:08:29.458Z,5.00
2019-02-09T03:11:00.040Z,5.10
2019-02-09T03:13:30.705Z,5.10
2019-02-09T03:16:01.268Z,5.10
2019-02-09T03:18:31.973Z,5.10
2019-02-09T03:21:02.535Z,5.00
2019-02-09T03:23:33.237Z,5.10
2019-02-09T03:26:03.864Z,5.10
2019-02-09T03:28:34.605Z,5.20
2019-02-09T03:31:05.341Z,5.10
2019-02-09T03:33:36.613Z,5.10
2019-02-09T03:36:07.327Z,5.30
2019-02-09T03:38:37.915Z,5.50
2019-02-09T03:41:08.564Z,5.60
2019-02-09T03:43:39.221Z,5.60
2019-02-09T03:46:09.933Z,5.60
2019-02-09T03:48:40.828Z,5.60
2019-02-09T03:51:11.838Z,5.60
2019-02-09T03:53:42.416Z,5.60
2019-02-09T03:56:13.061Z,5.60
2019-02-09T03:58:43.729Z,5.70
2019-02-09T04:01:14.422Z,5.30
2019-02-09T04:03:44.999Z,5.10
2019-02-09T04:06:15.698Z,4.90
2019-02-09T04:08:46.269Z,4.80
2019-02-09T04:11:16.953Z,4.90
2019-02-09T04:13:47.522Z,5.00
2019-02-09T04:16:18.198Z,5.00
2019-02-09T04:18:48.781Z,5.20
2019-02-09T04:21:19.483Z,5.30
2019-02-09T04:23:50.056Z,5.20
2019-02-09T04:26:20.734Z,5.10
2019-02-09T04:28:51.290Z,5.30
2019-02-09T04:31:21.866Z,5.30
2019-02-09T04:33:52.525Z,5.40
2019-02-09T04:36:23.079Z,5.40
2019-02-09T04:38:53.725Z,5.50
2019-02-09T04:41:24.294Z,5.50
2019-02-09T04:43:54.959Z,5.60
2019-02-09T04:46:26.212Z,5.60
2019-02-09T04:48:57.232Z,5.70
2019-02-09T04:51:27.803Z,5.60
2019-02-09T04:53:58.500Z,5.60
2019-02-09T04:56:29.042Z,5.60
2019-02-09T04:58:59.660Z,5.60
2019-02-09T05:01:30.213Z,5.50
2019-02-09T05:04:00.914Z,5.60
2019-02-09T05:06:31.789Z,5.50
2019-02-09T05:09:02.501Z,5.50
2019-02-09T05:11:33.360Z,5.50
2019-02-09T05:14:04.161Z,5.40
2019-02-09T05:16:34.740Z,5.40
2019-02-09T05:19:05.446Z,5.40
2019-02-09T05:21:36.024Z,5.40
2019-02-09T05:24:06.899Z,5.40
2019-02-09T05:26:37.467Z,5.40
2019-02-09T05:29:08.144Z,5.40
2019-02-09T05:31:38.785Z,5.50
2019-02-09T05:34:10.063Z,5.60
2019-02-09T05:36:41.480Z,5.60
2019-02-09T05:39:12.028Z,5.70
2019-02-09T05:41:42.733Z,5.70
2019-02-09T05:44:13.290Z,5.70
2019-02-09T05:46:44.207Z,5.70
2019-02-09T05:49:15.083Z,5.70
2019-02-09T05:51:45.789Z,5.70
2019-02-09T05:54:16.688Z,5.60
2019-02-09T05:56:47.832Z,5.70
2019-02-09T05:59:18.378Z,5.70
2019-02-09T06:01:49.021Z,5.60
2019-02-09T06:04:19.575Z,5.60
2019-02-09T06:06:50.283Z,5.60
2019-02-09T06:09:20.847Z,5.60
2019-02-09T06:11:51.529Z,5.70
2019-02-09T06:14:22.731Z,5.70
2019-02-09T06:16:53.767Z,5.70
2019-02-09T06:19:24.607Z,5.70
2019-02-09T06:21:55.940Z,5.70
2019-02-09T06:24:26.512Z,5.70
2019-02-09T06:26:57.169Z,5.70
2019-02-09T06:29:28.090Z,5.80
2019-02-09T06:31:58.704Z,5.80
2019-02-09T06:34:29.830Z,5.80
2019-02-09T06:37:00.724Z,5.80
2019-02-09T06:39:31.364Z,5.70
2019-02-09T06:42:01.953Z,5.70
2019-02-09T06:44:32.582Z,5.70
2019-02-09T06:47:03.475Z,5.70
2019-02-09T06:49:34.516Z,5.70
2019-02-09T06:52:05.244Z,5.70
2019-02-09T06:54:36.441Z,5.70
2019-02-09T06:57:07.134Z,5.60
2019-02-09T06:59:37.769Z,5.70
2019-02-09T07:02:09.435Z,5.70
2019-02-09T07:04:40.013Z,5.70
2019-02-09T07:07:10.654Z,5.80
2019-02-09T07:09:41.237Z,5.80
2019-02-09T07:12:11.919Z,6.00
2019-02-09T07:14:42.776Z,5.80
2019-02-09T07:17:13.488Z,5.80
2019-02-09T07:19:44.049Z,5.90
2019-02-09T07:22:14.728Z,5.90
2019-02-09T07:24:45.294Z,6.00
2019-02-09T07:27:15.995Z,6.00
2019-02-09T07:29:47.264Z,6.00
2019-02-09T07:32:17.837Z,6.10
2019-02-09T07:34:48.757Z,6.10
2019-02-09T07:37:19.396Z,6.20
2019-02-09T07:39:49.987Z,6.30
2019-02-09T07:42:20.603Z,6.40
2019-02-09T07:44:51.579Z,6.50
2019-02-09T07:47:22.282Z,6.60
2019-02-09T07:49:52.867Z,6.70
2019-02-09T07:52:23.542Z,6.80
2019-02-09T07:54:54.111Z,6.90
2019-02-09T07:57:24.803Z,7.00
2019-02-09T07:59:55.368Z,7.00
2019-02-09T08:02:26.071Z,7.10
2019-02-09T08:04:56.943Z,7.10
2019-02-09T08:07:27.655Z,7.10
2019-02-09T08:09:58.600Z,7.20
2019-02-09T08:12:29.305Z,7.20
2019-02-09T08:15:00.175Z,7.20
2019-02-09T08:17:30.978Z,7.30
2019-02-09T08:20:01.851Z,7.40
2019-02-09T08:22:32.552Z,7.40
2019-02-09T08:25:03.242Z,7.50
2019-02-09T08:27:33.913Z,7.60
2019-02-09T08:30:05.177Z,7.60
2019-02-09T08:32:35.767Z,7.60
2019-02-09T08:35:07.100Z,7.60
2019-02-09T08:37:37.708Z,7.60
2019-02-09T08:40:10.190Z,7.60
2019-02-09T08:42:40.758Z,7.70
2019-02-09T08:45:16.332Z,7.80
2019-02-09T08:47:47.140Z,7.70
2019-02-09T08:50:49.381Z,7.70
2019-02-09T08:53:19.988Z,7.70
2019-02-09T08:55:50.621Z,7.70
2019-02-09T08:58:21.218Z,7.70
2019-02-09T09:00:51.859Z,7.70
2019-02-09T09:03:22.772Z,7.70
2019-02-09T09:05:53.409Z,7.80
2019-02-09T09:08:24.327Z,7.80
2019-02-09T09:10:55.002Z,8.00
2019-02-09T09:13:25.621Z,8.10
2019-02-09T09:15:58.240Z,8.10
2019-02-09T09:18:28.848Z,8.10
2019-02-09T09:21:02.842Z,8.10
2019-02-09T09:23:33.447Z,8.20
2019-02-09T09:26:05.045Z,8.40
2019-02-09T09:28:35.661Z,8.60
2019-02-09T09:31:06.596Z,8.80
2019-02-09T09:33:37.229Z,8.80
2019-02-09T09:36:08.813Z,8.70
2019-02-09T09:38:39.802Z,8.60
2019-02-09T09:41:10.397Z,8.50
2019-02-09T09:43:41.097Z,8.50
2019-02-09T09:46:12.433Z,8.50
2019-02-09T09:48:43.158Z,8.50
2019-02-09T09:51:14.747Z,8.50
2019-02-09T09:53:45.463Z,8.40
2019-02-09T09:56:16.478Z,8.30
2019-02-09T09:58:47.143Z,8.20
2019-02-09T10:01:17.826Z,8.30
2019-02-09T10:03:48.919Z,8.20
2019-02-09T10:06:19.895Z,8.30
2019-02-09T10:08:50.547Z,8.20
2019-02-09T10:11:21.121Z,8.30
2019-02-09T10:13:51.825Z,8.40
2019-02-09T10:16:22.733Z,8.40
2019-02-09T10:18:53.720Z,8.60
2019-02-09T10:21:24.296Z,8.60
2019-02-09T10:23:54.952Z,8.40
2019-02-09T10:26:25.519Z,8.60
2019-02-09T10:28:56.221Z,8.60
2019-02-09T10:31:26.808Z,8.40
2019-02-09T10:33:57.383Z,8.30
2019-02-09T10:36:27.996Z,8.20
2019-02-09T10:38:58.695Z,8.20
2019-02-09T10:41:29.563Z,8.20
2019-02-09T10:44:00.238Z,8.20
2019-02-09T10:46:31.091Z,8.10
2019-02-09T10:49:01.808Z,8.20
2019-02-09T10:51:32.371Z,8.50
2019-02-09T10:54:03.033Z,8.60
2019-02-09T10:56:33.597Z,8.70
2019-02-09T10:59:04.090Z,8.90
2019-02-09T11:01:34.630Z,9.00
2019-02-09T11:04:05.720Z,9.10
2019-02-09T11:06:37.045Z,9.00
2019-02-09T11:09:18.216Z,8.70
2019-02-09T11:11:48.766Z,8.70
2019-02-09T11:14:19.556Z,8.80
2019-02-09T11:16:50.106Z,8.80
2019-02-09T11:19:20.854Z,8.80
2019-02-09T11:21:51.431Z,8.70
2019-02-09T11:24:23.213Z,8.60
2019-02-09T11:26:54.846Z,8.60
2019-02-09T11:29:26.914Z,8.60
2019-02-09T11:31:59.153Z,8.60
2019-02-09T11:34:31.408Z,8.60
2019-02-09T11:37:02.845Z,8.70
2019-02-09T11:39:33.562Z,8.80
2019-02-09T11:42:04.310Z,8.80
2019-02-09T11:44:41.022Z,8.70
2019-02-09T11:47:07.825Z,8.80
2019-02-09T11:49:38.525Z,8.70
2019-02-09T11:52:09.095Z,8.70
2019-02-09T11:54:40.160Z,8.70
2019-02-09T11:57:11.070Z,8.80
2019-02-09T11:59:41.756Z,8.80
2019-02-09T12:02:12.304Z,8.80
2019-02-09T12:04:43.174Z,8.80
2019-02-09T12:07:13.778Z,8.80
2019-02-09T12:09:44.811Z,8.80
2019-02-09T12:12:15.356Z,8.80
2019-02-09T12:14:46.060Z,8.70
2019-02-09T12:17:17.275Z,8.60
2019-02-09T12:19:48.045Z,8.60
2019-02-09T12:22:18.963Z,8.60
2019-02-09T12:24:49.690Z,8.50
2019-02-09T12:27:20.585Z,8.60
2019-02-09T12:29:51.282Z,8.50
2019-02-09T12:32:21.841Z,8.50
2019-02-09T12:34:52.522Z,8.60
2019-02-09T12:37:23.318Z,8.60
2019-02-09T12:39:54.216Z,8.60
2019-02-09T12:42:25.194Z,8.60
2019-02-09T12:44:55.741Z,8.50
2019-02-09T12:47:26.280Z,8.60
2019-02-09T12:49:56.839Z,8.50
2019-02-09T12:52:27.556Z,8.50
2019-02-09T12:54:58.116Z,8.50
2019-02-09T12:57:28.825Z,8.40
2019-02-09T12:59:59.395Z,8.50
2019-02-09T13:02:31.014Z,8.50
2019-02-09T13:05:02.060Z,8.60
2019-02-09T13:07:32.796Z,8.80
2019-02-09T13:10:03.671Z,8.80
2019-02-09T13:12:34.381Z,8.60
2019-02-09T13:15:05.760Z,8.60
2019-02-09T13:17:37.099Z,8.50
2019-02-09T13:20:11.304Z,8.40
2019-02-09T13:22:42.017Z,8.50
2019-02-09T13:25:12.881Z,8.60
2019-02-09T13:27:43.794Z,8.60
2019-02-09T13:30:24.597Z,8.60
2019-02-09T13:32:55.144Z,8.40
2019-02-09T13:35:26.271Z,8.50
2019-02-09T13:37:57.306Z,8.40
2019-02-09T13:40:28.560Z,8.40
2019-02-09T13:42:59.172Z,8.40
2019-02-09T13:45:33.207Z,8.50
2019-02-09T13:48:04.308Z,8.60
2019-02-09T13:50:36.156Z,8.60
2019-02-09T13:53:08.441Z,8.70
2019-02-09T13:55:38.973Z,8.70
2019-02-09T13:58:09.671Z,8.70
2019-02-09T14:00:40.502Z,8.60
2019-02-09T14:03:11.139Z,8.60
2019-02-09T14:05:41.605Z,8.50
2019-02-09T14:08:12.874Z,8.60
2019-02-09T14:10:43.415Z,8.60
2019-02-09T14:13:14.786Z,8.70
2019-02-09T14:15:45.700Z,8.70
2019-02-09T14:18:16.285Z,8.60
2019-02-09T14:20:47.195Z,8.60
2019-02-09T14:23:17.955Z,8.50
2019-02-09T14:25:48.499Z,8.50
2019-02-09T14:28:20.652Z,8.40
2019-02-09T14:30:51.368Z,8.40
2019-02-09T14:33:22.018Z,8.30
2019-02-09T14:35:52.807Z,8.00
2019-02-09T14:38:23.551Z,7.80
2019-02-09T14:40:54.096Z,7.70
2019-02-09T14:43:24.657Z,7.50
2019-02-09T14:45:55.266Z,7.50
2019-02-09T14:48:26.802Z,7.50
2019-02-09T14:50:57.665Z,7.40
2019-02-09T14:53:28.364Z,7.40
2019-02-09T14:55:58.900Z,7.30
2019-02-09T14:58:29.627Z,7.40
2019-02-09T15:01:00.165Z,7.40
2019-02-09T15:03:30.961Z,7.40
2019-02-09T15:06:01.510Z,7.40
2019-02-09T15:08:32.224Z,7.40
2019-02-09T15:11:02.809Z,7.50
2019-02-09T15:13:33.519Z,7.50
2019-02-09T15:16:43.571Z,7.40
2019-02-09T15:19:14.418Z,7.40
2019-02-09T15:21:46.196Z,7.40
2019-02-09T15:24:16.676Z,7.40
2019-02-09T15:26:47.729Z,7.40
2019-02-09T15:29:18.628Z,7.40
2019-02-09T15:31:49.279Z,7.30
2019-02-09T15:34:19.816Z,7.30
2019-02-09T15:36:50.564Z,7.30
2019-02-09T15:39:21.313Z,7.30
2019-02-09T15:41:51.874Z,7.40
2019-02-09T15:44:22.474Z,7.30
2019-02-09T15:46:53.011Z,7.40
2019-02-09T15:49:24.296Z,7.50
2019-02-09T15:51:54.857Z,7.50
2019-02-09T15:54:25.586Z,7.40
2019-02-09T15:56:56.140Z,7.40
2019-02-09T15:59:26.688Z,7.40
2019-02-09T16:01:57.380Z,7.40
2019-02-09T16:04:27.910Z,7.30
2019-02-09T16:06:58.653Z,7.30
2019-02-09T16:09:29.205Z,7.30
2019-02-09T16:11:59.840Z,7.30
2019-02-09T16:14:30.603Z,7.20
2019-02-09T16:17:01.279Z,7.20
2019-02-09T16:19:31.838Z,7.20
2019-02-09T16:22:02.431Z,7.20
2019-02-09T16:24:32.970Z,7.30
2019-02-09T16:27:03.747Z,7.30
2019-02-09T16:29:34.896Z,7.30
2019-02-09T16:32:05.759Z,7.20
2019-02-09T16:34:36.291Z,7.20
2019-02-09T16:37:07.057Z,7.10
2019-02-09T16:39:37.743Z,7.10
2019-02-09T16:42:08.279Z,7.10
2019-02-09T16:44:38.942Z,7.10
2019-02-09T16:47:09.778Z,7.00
2019-02-09T16:49:40.493Z,7.00
2019-02-09T16:52:11.835Z,7.00
2019-02-09T16:54:42.410Z,6.90
2019-02-09T16:57:13.272Z,6.90
2019-02-09T16:59:43.938Z,6.90
2019-02-09T17:02:14.507Z,6.90
2019-02-09T17:04:45.198Z,6.90
2019-02-09T17:07:15.743Z,6.80
2019-02-09T17:09:46.481Z,6.80
2019-02-09T17:12:17.341Z,6.70
2019-02-09T17:14:48.039Z,6.70
2019-02-09T17:17:18.492Z,6.70
2019-02-09T17:19:49.860Z,6.80
2019-02-09T17:22:20.392Z,6.80
2019-02-09T17:24:51.009Z,6.70
2019-02-09T17:27:21.457Z,6.70
2019-02-09T17:29:52.067Z,6.60
2019-02-09T17:32:22.607Z,6.60
2019-02-09T17:34:53.281Z,6.60
2019-02-09T17:37:24.395Z,6.50
2019-02-09T17:39:54.942Z,6.50
2019-02-09T17:42:25.691Z,6.50
2019-02-09T17:44:56.246Z,6.50
2019-02-09T17:47:26.800Z,6.50
2019-02-09T17:49:57.332Z,6.50
2019-02-09T17:52:28.686Z,6.40
2019-02-09T17:54:59.260Z,6.50
2019-02-09T17:57:29.699Z,6.60
2019-02-09T18:00:00.411Z,6.60
2019-02-09T18:02:30.944Z,6.60
2019-02-09T18:05:01.785Z,6.60
2019-02-09T18:07:32.322Z,6.60
2019-02-09T18:10:02.998Z,6.50
2019-02-09T18:12:33.951Z,6.50
2019-02-09T18:15:05.503Z,6.60
2019-02-09T18:17:36.024Z,6.60
2019-02-09T18:20:09.041Z,6.70
2019-02-09T18:22:39.584Z,6.80
2019-02-09T18:25:12.658Z,6.80
2019-02-09T18:27:43.202Z,7.00
2019-02-09T18:30:21.565Z,7.00
2019-02-09T18:32:52.389Z,7.00
2019-02-09T18:35:23.474Z,7.00
2019-02-09T18:37:54.418Z,7.10
2019-02-09T18:40:25.618Z,7.10
2019-02-09T18:42:56.166Z,7.20
2019-02-09T18:45:28.328Z,7.10
2019-02-09T18:47:59.509Z,7.10
2019-02-09T18:50:30.180Z,7.10
2019-02-09T18:53:01.345Z,7.10
2019-02-09T18:55:33.048Z,7.10
2019-02-09T18:58:03.583Z,7.00
2019-02-09T19:00:35.673Z,7.00
2019-02-09T19:03:08.421Z,7.00
2019-02-09T19:05:38.974Z,7.00
2019-02-09T19:08:10.827Z,7.00
2019-02-09T19:10:41.388Z,7.00
2019-02-09T19:13:12.227Z,6.90
2019-02-09T19:15:42.918Z,6.90
2019-02-09T19:18:14.173Z,7.00
2019-02-09T19:20:52.943Z,7.10
2019-02-09T19:23:23.400Z,7.00
2019-02-09T19:25:54.193Z,7.00
2019-02-09T19:28:24.858Z,7.00
2019-02-09T19:30:55.395Z,6.90
2019-02-09T19:33:27.671Z,6.90
2019-02-09T19:35:58.964Z,6.90
2019-02-09T19:38:29.812Z,6.80
2019-02-09T19:41:00.353Z,6.80
2019-02-09T19:43:31.215Z,6.80
2019-02-09T19:46:01.959Z,6.80
2019-02-09T19:48:32.505Z,6.80
2019-02-09T19:51:03.127Z,6.80
2019-02-09T19:53:33.723Z,6.70
2019-02-09T19:56:04.570Z,6.70
2019-02-09T19:58:35.510Z,6.70
2019-02-09T20:01:06.477Z,6.70
2019-02-09T20:03:37.345Z,6.60
2019-02-09T20:06:08.033Z,6.60
2019-02-09T20:08:38.589Z,6.50
2019-02-09T20:11:09.286Z,6.50
2019-02-09T20:13:39.824Z,6.50
2019-02-09T20:16:10.531Z,6.50
2019-02-09T20:18:41.061Z,6.50
2019-02-09T20:21:11.797Z,6.60
2019-02-09T20:23:42.739Z,6.60
2019-02-09T20:26:13.415Z,6.60
2019-02-09T20:28:43.957Z,6.60
2019-02-09T20:31:15.176Z,6.60
2019-02-09T20:33:45.853Z,6.50
2019-02-09T20:36:16.481Z,6.50
2019-02-09T20:38:47.423Z,6.50
2019-02-09T20:41:17.980Z,6.50
2019-02-09T20:43:48.529Z,6.50
2019-02-09T20:46:19.229Z,6.40
2019-02-09T20:48:49.786Z,6.30
2019-02-09T20:51:20.488Z,6.30
2019-02-09T20:53:51.048Z,6.30
2019-02-09T20:56:21.746Z,6.20
2019-02-09T20:58:52.281Z,6.20
2019-02-09T21:01:23.391Z,6.20
2019-02-09T21:03:53.971Z,6.20
2019-02-09T21:06:24.687Z,6.10
2019-02-09T21:08:55.612Z,6.10
2019-02-09T21:11:26.169Z,6.20
2019-02-09T21:13:57.032Z,6.20
2019-02-09T21:16:27.583Z,6.20
2019-02-09T21:18:58.980Z,6.20
2019-02-09T21:21:29.512Z,6.10
2019-02-09T21:24:00.160Z,6.20
2019-02-09T21:26:30.705Z,6.20
2019-02-09T21:29:01.318Z,6.20
2019-02-09T21:31:31.875Z,6.10
2019-02-09T21:34:02.556Z,6.00
2019-02-09T21:36:33.024Z,6.00
2019-02-09T21:39:04.473Z,6.00
2019-02-09T21:41:36.238Z,6.00
2019-02-09T21:44:07.082Z,6.00
2019-02-09T21:46:37.783Z,5.90
2019-02-09T21:49:08.405Z,5.90
2019-02-09T21:51:39.169Z,5.90
2019-02-09T21:54:10.018Z,5.80
2019-02-09T21:56:40.688Z,5.80
2019-02-09T21:59:11.254Z,5.70
2019-02-09T22:01:42.239Z,5.70
2019-02-09T22:04:12.797Z,5.60
2019-02-09T22:06:43.418Z,5.50
2019-02-09T22:09:13.890Z,5.40
2019-02-09T22:11:44.437Z,5.40
2019-02-09T22:14:15.246Z,5.40
2019-02-09T22:16:46.580Z,5.40
2019-02-09T22:19:17.618Z,5.40
2019-02-09T22:21:48.405Z,5.40
2019-02-09T22:24:20.158Z,5.50
2019-02-09T22:26:50.965Z,5.40
2019-02-09T22:29:21.712Z,5.50
2019-02-09T22:31:52.255Z,5.50
2019-02-09T22:34:23.389Z,5.50
2019-02-09T22:36:54.128Z,5.50
2019-02-09T22:39:24.819Z,5.30
2019-02-09T22:41:55.769Z,5.30
2019-02-09T22:44:26.586Z,5.30
2019-02-09T22:46:57.185Z,5.30
2019-02-09T22:49:28.150Z,5.50
2019-02-09T22:51:58.727Z,5.50
2019-02-09T22:54:29.768Z,5.40
2019-02-09T22:57:00.467Z,5.40
2019-02-09T22:59:31.510Z,5.50
2019-02-09T23:02:02.370Z,5.50
2019-02-09T23:05:13.319Z,5.50
2019-02-09T23:07:43.983Z,5.50
2019-02-09T23:10:15.993Z,5.50
2019-02-09T23:12:48.684Z,5.40
2019-02-09T23:15:19.294Z,5.50
2019-02-09T23:17:50.433Z,5.50
2019-02-09T23:20:21.270Z,5.50
2019-02-09T23:22:51.956Z,5.50
2019-02-09T23:25:22.831Z,5.60
2019-02-09T23:27:53.382Z,5.50
2019-02-09T23:30:25.270Z,5.70
2019-02-09T23:32:56.239Z,5.70
2019-02-09T23:35:27.468Z,5.70
2019-02-09T23:37:58.073Z,5.70
2019-02-09T23:40:28.833Z,5.70
2019-02-09T23:42:59.790Z,5.70
2019-02-09T23:45:30.260Z,5.70
2019-02-09T23:48:01.002Z,5.90
2019-02-09T23:50:31.729Z,5.90
2019-02-09T23:53:03.153Z,5.90
2019-02-09T23:55:34.126Z,5.90
2019-02-09T23:58:04.838Z,5.90
